sensor_id;sensor_type;location;lat;lon;timestamp;P1;durP1;ratioP1;P2;durP2;ratioP2
12912;SDS011;6524;51.368;11.984;2023-02-15T00:03:05;29.50;;;19.63;;
12912;SDS011;6524;51.368;11.984;2023-02-15T00:08:05;26.77;;;17.90;;
12912;SDS011;6524;51.368;11.984;2023-02-15T00:13:05;20.23;;;14.80;;
12912;SDS011;6524;51.368;11.984;2023-02-15T00:18:06;19.33;;;13.60;;
12912;SDS011;6524;51.368;11.984;2023-02-15T00:23:06;21.60;;;15.17;;
12912;SDS011;6524;51.368;11.984;2023-02-15T00:28:07;24.27;;;15.60;;
12912;SDS011;6524;51.368;11.984;2023-02-15T00:33:07;32.93;;;18.60;;
12912;SDS011;6524;51.368;11.984;2023-02-15T00:38:07;65.23;;;20.10;;
12912;SDS011;6524;51.368;11.984;2023-02-15T00:43:07;45.92;;;18.73;;
12912;SDS011;6524;51.368;11.984;2023-02-15T00:48:08;35.80;;;17.43;;
12912;SDS011;6524;51.368;11.984;2023-02-15T00:53:08;34.25;;;18.42;;
12912;SDS011;6524;51.368;11.984;2023-02-15T00:58:09;23.30;;;15.63;;
12912;SDS011;6524;51.368;11.984;2023-02-15T05:03:44;19.60;;;10.33;;
12912;SDS011;6524;51.368;11.984;2023-02-15T05:08:45;20.90;;;9.70;;
12912;SDS011;6524;51.368;11.984;2023-02-15T05:13:45;21.97;;;10.47;;
12912;SDS011;6524;51.368;11.984;2023-02-15T05:18:46;20.70;;;10.20;;
12912;SDS011;6524;51.368;11.984;2023-02-15T05:23:46;19.57;;;9.97;;
12912;SDS011;6524;51.368;11.984;2023-02-15T05:28:46;14.90;;;10.00;;
12912;SDS011;6524;51.368;11.984;2023-02-15T05:33:47;26.00;;;9.90;;
12912;SDS011;6524;51.368;11.984;2023-02-15T05:38:48;20.53;;;11.87;;
12912;SDS011;6524;51.368;11.984;2023-02-15T05:44:18;21.98;;;12.65;;
12912;SDS011;6524;51.368;11.984;2023-02-15T05:49:18;25.03;;;10.57;;
12912;SDS011;6524;51.368;11.984;2023-02-15T05:54:19;46.87;;;11.20;;
12912;SDS011;6524;51.368;11.984;2023-02-15T05:59:19;23.53;;;11.17;;
12912;SDS011;6524;51.368;11.984;2023-02-15T06:04:20;22.67;;;10.47;;
12912;SDS011;6524;51.368;11.984;2023-02-15T06:09:20;42.53;;;12.13;;
12912;SDS011;6524;51.368;11.984;2023-02-15T06:14:21;25.70;;;11.00;;
12912;SDS011;6524;51.368;11.984;2023-02-15T06:19:24;23.50;;;12.40;;
12912;SDS011;6524;51.368;11.984;2023-02-15T06:24:25;27.50;;;12.65;;
12912;SDS011;6524;51.368;11.984;2023-02-15T06:29:25;25.73;;;11.23;;
12912;SDS011;6524;51.368;11.984;2023-02-15T06:34:25;24.73;;;10.20;;
12912;SDS011;6524;51.368;11.984;2023-02-15T06:39:26;20.73;;;10.50;;
12912;SDS011;6524;51.368;11.984;2023-02-15T06:49:36;47.23;;;12.10;;
12912;SDS011;6524;51.368;11.984;2023-02-15T06:54:37;17.93;;;10.80;;
12912;SDS011;6524;51.368;11.984;2023-02-15T06:59:37;34.33;;;11.13;;
12912;SDS011;6524;51.368;11.984;2023-02-15T07:04:38;15.40;;;10.67;;
12912;SDS011;6524;51.368;11.984;2023-02-15T07:09:38;23.93;;;10.80;;
12912;SDS011;6524;51.368;11.984;2023-02-15T07:14:39;21.45;;;14.35;;
12912;SDS011;6524;51.368;11.984;2023-02-15T07:19:40;18.00;;;12.50;;
12912;SDS011;6524;51.368;11.984;2023-02-15T07:24:41;15.40;;;11.10;;
12912;SDS011;6524;51.368;11.984;2023-02-15T07:29:41;13.37;;;10.57;;
12912;SDS011;6524;51.368;11.984;2023-02-15T07:34:41;26.43;;;10.37;;
12912;SDS011;6524;51.368;11.984;2023-02-15T07:39:42;22.90;;;11.37;;
12912;SDS011;6524;51.368;11.984;2023-02-15T07:44:42;25.80;;;11.33;;
12912;SDS011;6524;51.368;11.984;2023-02-15T07:49:43;17.87;;;11.60;;
12912;SDS011;6524;51.368;11.984;2023-02-15T07:54:43;14.10;;;10.67;;
12912;SDS011;6524;51.368;11.984;2023-02-15T07:59:43;15.10;;;10.47;;
12912;SDS011;6524;51.368;11.984;2023-02-15T08:04:44;17.67;;;10.03;;
12912;SDS011;6524;51.368;11.984;2023-02-15T08:09:44;12.67;;;9.83;;
12912;SDS011;6524;51.368;11.984;2023-02-15T08:14:45;12.07;;;9.77;;
12912;SDS011;6524;51.368;11.984;2023-02-15T08:19:45;17.13;;;11.23;;
12912;SDS011;6524;51.368;11.984;2023-02-15T08:24:46;11.70;;;9.57;;
12912;SDS011;6524;51.368;11.984;2023-02-15T08:29:47;13.87;;;10.17;;
12912;SDS011;6524;51.368;11.984;2023-02-15T08:34:47;14.17;;;10.27;;
12912;SDS011;6524;51.368;11.984;2023-02-15T08:39:49;12.23;;;10.03;;
12912;SDS011;6524;51.368;11.984;2023-02-15T08:44:49;10.98;;;9.88;;
12912;SDS011;6524;51.368;11.984;2023-02-15T08:49:51;11.20;;;10.10;;
12912;SDS011;6524;51.368;11.984;2023-02-15T08:54:51;10.63;;;9.63;;
12912;SDS011;6524;51.368;11.984;2023-02-15T08:59:52;11.20;;;10.10;;
12912;SDS011;6524;51.368;11.984;2023-02-15T09:04:54;11.07;;;10.07;;
12912;SDS011;6524;51.368;11.984;2023-02-15T09:09:55;11.60;;;10.50;;
12912;SDS011;6524;51.368;11.984;2023-02-15T09:14:55;10.60;;;9.75;;
12912;SDS011;6524;51.368;11.984;2023-02-15T09:19:56;9.93;;;9.13;;
12912;SDS011;6524;51.368;11.984;2023-02-15T09:24:56;9.18;;;8.48;;
12912;SDS011;6524;51.368;11.984;2023-02-15T09:29:57;8.80;;;8.10;;
12912;SDS011;6524;51.368;11.984;2023-02-15T09:34:57;8.43;;;7.73;;
12912;SDS011;6524;51.368;11.984;2023-02-15T09:39:57;9.00;;;8.30;;
12912;SDS011;6524;51.368;11.984;2023-02-15T10:06:31;8.45;;;7.75;;
12912;SDS011;6524;51.368;11.984;2023-02-15T10:27:48;8.27;;;7.68;;
12912;SDS011;6524;51.368;11.984;2023-02-15T10:32:59;8.50;;;7.80;;
12912;SDS011;6524;51.368;11.984;2023-02-15T10:59:42;8.60;;;7.90;;
12912;SDS011;6524;51.368;11.984;2023-02-15T11:20:45;8.82;;;8.02;;
12912;SDS011;6524;51.368;11.984;2023-02-15T11:26:04;8.57;;;7.88;;
12912;SDS011;6524;51.368;11.984;2023-02-15T11:31:15;8.90;;;8.15;;
12912;SDS011;6524;51.368;11.984;2023-02-15T11:36:26;8.88;;;8.15;;
12912;SDS011;6524;51.368;11.984;2023-02-15T11:41:33;7.88;;;7.22;;
12912;SDS011;6524;51.368;11.984;2023-02-15T11:46:38;8.88;;;8.07;;
12912;SDS011;6524;51.368;11.984;2023-02-15T11:51:39;8.68;;;7.95;;
12912;SDS011;6524;51.368;11.984;2023-02-15T11:56:39;9.65;;;8.85;;
12912;SDS011;6524;51.368;11.984;2023-02-15T12:01:40;8.70;;;8.00;;
12912;SDS011;6524;51.368;11.984;2023-02-15T12:06:48;9.57;;;8.77;;
12912;SDS011;6524;51.368;11.984;2023-02-15T12:11:53;8.65;;;7.97;;
12912;SDS011;6524;51.368;11.984;2023-02-15T12:16:54;8.40;;;7.70;;
12912;SDS011;6524;51.368;11.984;2023-02-15T12:21:56;8.77;;;8.07;;
12912;SDS011;6524;51.368;11.984;2023-02-15T12:27:20;8.82;;;8.10;;
12912;SDS011;6524;51.368;11.984;2023-02-15T12:32:23;8.63;;;7.88;;
12912;SDS011;6524;51.368;11.984;2023-02-15T12:37:29;8.90;;;8.10;;
12912;SDS011;6524;51.368;11.984;2023-02-15T12:42:42;9.30;;;8.45;;
12912;SDS011;6524;51.368;11.984;2023-02-15T12:47:44;9.85;;;8.82;;
12912;SDS011;6524;51.368;11.984;2023-02-15T12:52:48;9.50;;;8.60;;
12912;SDS011;6524;51.368;11.984;2023-02-15T12:58:06;9.40;;;8.50;;
12912;SDS011;6524;51.368;11.984;2023-02-15T13:03:19;8.25;;;7.55;;
12912;SDS011;6524;51.368;11.984;2023-02-15T13:08:25;8.52;;;7.72;;
12912;SDS011;6524;51.368;11.984;2023-02-15T13:13:29;9.60;;;8.52;;
12912;SDS011;6524;51.368;11.984;2023-02-15T13:18:32;8.80;;;8.00;;
12912;SDS011;6524;51.368;11.984;2023-02-15T13:23:35;7.95;;;7.15;;
12912;SDS011;6524;51.368;11.984;2023-02-15T13:28:39;8.45;;;7.53;;
12912;SDS011;6524;51.368;11.984;2023-02-15T13:33:46;7.65;;;6.90;;
12912;SDS011;6524;51.368;11.984;2023-02-15T13:38:56;7.70;;;6.97;;
12912;SDS011;6524;51.368;11.984;2023-02-15T14:00:22;7.32;;;6.63;;
12912;SDS011;6524;51.368;11.984;2023-02-15T14:10:50;6.80;;;6.20;;
12912;SDS011;6524;51.368;11.984;2023-02-15T14:15:57;7.18;;;6.30;;
12912;SDS011;6524;51.368;11.984;2023-02-15T14:21:16;7.53;;;6.40;;
12912;SDS011;6524;51.368;11.984;2023-02-15T14:27:07;6.10;;;5.53;;
12912;SDS011;6524;51.368;11.984;2023-02-15T14:32:25;7.30;;;6.18;;
12912;SDS011;6524;51.368;11.984;2023-02-15T14:48:43;5.43;;;4.93;;
12912;SDS011;6524;51.368;11.984;2023-02-15T14:53:47;4.93;;;4.45;;
12912;SDS011;6524;51.368;11.984;2023-02-15T15:03:52;6.05;;;5.45;;
12912;SDS011;6524;51.368;11.984;2023-02-15T15:08:58;5.70;;;5.10;;
12912;SDS011;6524;51.368;11.984;2023-02-15T15:29:46;5.22;;;4.72;;
12912;SDS011;6524;51.368;11.984;2023-02-15T15:35:09;4.70;;;4.25;;
12912;SDS011;6524;51.368;11.984;2023-02-15T15:46:05;4.75;;;4.28;;
12912;SDS011;6524;51.368;11.984;2023-02-15T15:51:32;5.07;;;3.97;;
12912;SDS011;6524;51.368;11.984;2023-02-15T15:56:34;4.93;;;4.43;;
12912;SDS011;6524;51.368;11.984;2023-02-15T16:01:37;5.30;;;4.80;;
12912;SDS011;6524;51.368;11.984;2023-02-15T16:06:42;6.93;;;5.90;;
12912;SDS011;6524;51.368;11.984;2023-02-15T16:11:45;6.40;;;5.68;;
12912;SDS011;6524;51.368;11.984;2023-02-15T16:16:48;6.72;;;5.68;;
12912;SDS011;6524;51.368;11.984;2023-02-15T16:21:51;8.02;;;5.70;;
12912;SDS011;6524;51.368;11.984;2023-02-15T16:32:06;7.57;;;6.57;;
12912;SDS011;6524;51.368;11.984;2023-02-15T16:37:18;9.55;;;6.53;;
12912;SDS011;6524;51.368;11.984;2023-02-15T16:42:22;8.65;;;6.97;;
12912;SDS011;6524;51.368;11.984;2023-02-15T16:47:27;9.50;;;7.22;;
12912;SDS011;6524;51.368;11.984;2023-02-15T16:52:29;7.35;;;5.97;;
12912;SDS011;6524;51.368;11.984;2023-02-15T16:57:32;8.15;;;6.15;;
12912;SDS011;6524;51.368;11.984;2023-02-15T17:02:35;7.68;;;6.32;;
12912;SDS011;6524;51.368;11.984;2023-02-15T17:07:42;8.27;;;7.10;;
12912;SDS011;6524;51.368;11.984;2023-02-15T17:12:53;7.00;;;6.20;;
12912;SDS011;6524;51.368;11.984;2023-02-15T17:18:17;8.73;;;6.40;;
12912;SDS011;6524;51.368;11.984;2023-02-15T17:23:28;10.83;;;7.50;;
12912;SDS011;6524;51.368;11.984;2023-02-15T17:28:30;11.18;;;8.52;;
12912;SDS011;6524;51.368;11.984;2023-02-15T17:33:36;10.00;;;7.80;;
12912;SDS011;6524;51.368;11.984;2023-02-15T17:38:40;12.53;;;8.60;;
12912;SDS011;6524;51.368;11.984;2023-02-15T17:44:10;11.63;;;8.37;;
12912;SDS011;6524;51.368;11.984;2023-02-15T17:49:15;10.13;;;7.80;;
12912;SDS011;6524;51.368;11.984;2023-02-15T17:54:22;9.80;;;7.87;;
12912;SDS011;6524;51.368;11.984;2023-02-15T17:59:41;10.57;;;8.50;;
12912;SDS011;6524;51.368;11.984;2023-02-15T18:05:00;9.57;;;8.00;;
12912;SDS011;6524;51.368;11.984;2023-02-15T18:10:19;12.73;;;9.20;;
12912;SDS011;6524;51.368;11.984;2023-02-15T18:15:38;10.47;;;8.53;;
12912;SDS011;6524;51.368;11.984;2023-02-15T18:20:38;13.97;;;11.03;;
12912;SDS011;6524;51.368;11.984;2023-02-15T18:25:40;15.20;;;11.37;;
12912;SDS011;6524;51.368;11.984;2023-02-15T18:30:42;11.17;;;9.53;;
12912;SDS011;6524;51.368;11.984;2023-02-15T18:35:42;14.63;;;12.10;;
12912;SDS011;6524;51.368;11.984;2023-02-15T18:40:43;13.60;;;11.60;;
12912;SDS011;6524;51.368;11.984;2023-02-15T18:45:44;12.57;;;10.43;;
12912;SDS011;6524;51.368;11.984;2023-02-15T18:50:44;13.17;;;10.17;;
12912;SDS011;6524;51.368;11.984;2023-02-15T18:55:45;13.20;;;10.50;;
12912;SDS011;6524;51.368;11.984;2023-02-15T19:00:46;11.83;;;10.27;;
12912;SDS011;6524;51.368;11.984;2023-02-15T19:05:47;14.97;;;11.53;;
12912;SDS011;6524;51.368;11.984;2023-02-15T19:10:47;13.63;;;10.63;;
12912;SDS011;6524;51.368;11.984;2023-02-15T19:15:48;13.50;;;11.20;;
12912;SDS011;6524;51.368;11.984;2023-02-15T19:20:48;13.13;;;10.83;;
12912;SDS011;6524;51.368;11.984;2023-02-15T19:25:49;13.80;;;10.77;;
12912;SDS011;6524;51.368;11.984;2023-02-15T19:30:51;13.20;;;10.07;;
12912;SDS011;6524;51.368;11.984;2023-02-15T19:35:52;13.20;;;10.70;;
12912;SDS011;6524;51.368;11.984;2023-02-15T19:40:58;14.70;;;10.70;;
12912;SDS011;6524;51.368;11.984;2023-02-15T19:46:03;13.13;;;10.00;;
12912;SDS011;6524;51.368;11.984;2023-02-15T19:51:03;15.53;;;10.73;;
12912;SDS011;6524;51.368;11.984;2023-02-15T19:56:04;12.77;;;10.03;;
12912;SDS011;6524;51.368;11.984;2023-02-15T20:01:04;14.07;;;10.50;;
12912;SDS011;6524;51.368;11.984;2023-02-15T20:06:04;12.77;;;9.83;;
12912;SDS011;6524;51.368;11.984;2023-02-15T20:11:07;13.60;;;10.03;;
12912;SDS011;6524;51.368;11.984;2023-02-15T20:16:09;12.77;;;9.40;;
12912;SDS011;6524;51.368;11.984;2023-02-15T20:21:10;13.17;;;10.10;;
12912;SDS011;6524;51.368;11.984;2023-02-15T20:26:16;14.87;;;10.83;;
12912;SDS011;6524;51.368;11.984;2023-02-15T20:31:18;13.47;;;10.60;;
12912;SDS011;6524;51.368;11.984;2023-02-15T20:36:19;13.97;;;11.03;;
12912;SDS011;6524;51.368;11.984;2023-02-15T20:41:21;14.27;;;11.27;;
12912;SDS011;6524;51.368;11.984;2023-02-15T20:46:46;14.00;;;10.80;;
12912;SDS011;6524;51.368;11.984;2023-02-15T20:51:48;14.83;;;11.43;;
12912;SDS011;6524;51.368;11.984;2023-02-15T20:56:49;16.30;;;11.47;;
12912;SDS011;6524;51.368;11.984;2023-02-15T21:01:51;14.73;;;11.63;;
12912;SDS011;6524;51.368;11.984;2023-02-15T21:06:55;21.60;;;14.40;;
12912;SDS011;6524;51.368;11.984;2023-02-15T21:11:57;16.07;;;11.60;;
12912;SDS011;6524;51.368;11.984;2023-02-15T21:16:58;15.10;;;11.00;;
12912;SDS011;6524;51.368;11.984;2023-02-15T21:21:58;14.23;;;11.23;;
12912;SDS011;6524;51.368;11.984;2023-02-15T21:27:00;14.33;;;11.13;;
12912;SDS011;6524;51.368;11.984;2023-02-15T21:32:02;17.93;;;12.50;;
12912;SDS011;6524;51.368;11.984;2023-02-15T21:37:03;13.80;;;10.73;;
12912;SDS011;6524;51.368;11.984;2023-02-15T21:42:04;15.97;;;11.87;;
12912;SDS011;6524;51.368;11.984;2023-02-15T21:47:29;16.70;;;11.77;;
12912;SDS011;6524;51.368;11.984;2023-02-15T21:52:49;19.43;;;12.47;;
12912;SDS011;6524;51.368;11.984;2023-02-15T21:57:49;18.70;;;12.80;;
12912;SDS011;6524;51.368;11.984;2023-02-15T22:02:51;17.57;;;12.10;;
12912;SDS011;6524;51.368;11.984;2023-02-15T22:07:53;15.67;;;11.30;;
12912;SDS011;6524;51.368;11.984;2023-02-15T22:12:54;15.90;;;11.03;;
12912;SDS011;6524;51.368;11.984;2023-02-15T22:17:55;17.60;;;11.17;;
12912;SDS011;6524;51.368;11.984;2023-02-15T22:22:55;16.07;;;11.70;;
12912;SDS011;6524;51.368;11.984;2023-02-15T22:27:55;16.90;;;12.07;;
12912;SDS011;6524;51.368;11.984;2023-02-15T22:32:56;16.70;;;11.30;;
12912;SDS011;6524;51.368;11.984;2023-02-15T22:37:58;16.17;;;11.73;;
12912;SDS011;6524;51.368;11.984;2023-02-15T22:42:59;15.90;;;11.57;;
12912;SDS011;6524;51.368;11.984;2023-02-15T22:48:01;17.77;;;11.77;;
12912;SDS011;6524;51.368;11.984;2023-02-15T22:53:02;16.03;;;10.97;;
12912;SDS011;6524;51.368;11.984;2023-02-15T22:58:03;17.03;;;11.60;;
12912;SDS011;6524;51.368;11.984;2023-02-15T23:03:14;15.23;;;11.23;;
12912;SDS011;6524;51.368;11.984;2023-02-15T23:08:19;15.33;;;11.37;;
12912;SDS011;6524;51.368;11.984;2023-02-15T23:13:21;15.17;;;10.80;;
12912;SDS011;6524;51.368;11.984;2023-02-15T23:18:30;18.03;;;11.77;;
12912;SDS011;6524;51.368;11.984;2023-02-15T23:23:36;18.80;;;12.93;;
12912;SDS011;6524;51.368;11.984;2023-02-15T23:28:38;17.70;;;12.20;;
12912;SDS011;6524;51.368;11.984;2023-02-15T23:33:38;17.77;;;11.33;;
12912;SDS011;6524;51.368;11.984;2023-02-15T23:38:39;15.37;;;11.30;;
12912;SDS011;6524;51.368;11.984;2023-02-15T23:43:40;14.70;;;11.15;;
12912;SDS011;6524;51.368;11.984;2023-02-15T23:48:42;17.00;;;11.87;;
12912;SDS011;6524;51.368;11.984;2023-02-15T23:53:42;17.33;;;12.20;;
12912;SDS011;6524;51.368;11.984;2023-02-15T23:58:43;17.30;;;11.73;;
